createdAt,value
2022-12-31T00:00:10.738Z,0.9
2022-12-31T00:03:10.773Z,0.9
2022-12-31T00:06:10.721Z,0.9
2022-12-31T00:09:10.743Z,1.1
2022-12-31T00:12:10.770Z,0.9
2022-12-31T00:15:10.749Z,0.9
2022-12-31T00:18:10.771Z,1
2022-12-31T00:21:10.776Z,1.1
2022-12-31T00:24:10.794Z,1
2022-12-31T00:27:10.795Z,0.9
2022-12-31T00:30:10.833Z,1
2022-12-31T00:33:10.837Z,0.8
2022-12-31T00:36:10.838Z,0.9
2022-12-31T00:39:10.868Z,0.9
2022-12-31T00:42:10.861Z,0.8
2022-12-31T00:45:10.872Z,0.8
2022-12-31T00:48:10.914Z,0.8
2022-12-31T00:51:10.900Z,0.9
2022-12-31T00:54:10.922Z,0.8
2022-12-31T00:57:10.923Z,0.8
2022-12-31T01:00:10.937Z,0.9
2022-12-31T01:03:11.022Z,0.9
2022-12-31T01:06:10.994Z,0.8
2022-12-31T01:09:10.995Z,0.8
2022-12-31T01:12:10.993Z,0.7
2022-12-31T01:15:11.004Z,0.7
2022-12-31T01:18:11.017Z,0.8
2022-12-31T01:21:11.036Z,0.7
2022-12-31T01:24:11.081Z,0.8
2022-12-31T01:27:11.055Z,0.5
2022-12-31T01:30:11.085Z,0.6
2022-12-31T01:33:11.097Z,0.6
2022-12-31T01:36:11.093Z,0.6
2022-12-31T01:39:11.131Z,0.6
2022-12-31T01:42:11.141Z,0.6
2022-12-31T01:45:11.119Z,0.6
2022-12-31T01:48:11.135Z,0.5
2022-12-31T01:51:11.154Z,0.7
2022-12-31T01:54:11.158Z,0.8
2022-12-31T01:57:11.157Z,0.8
2022-12-31T02:00:11.206Z,0.8
2022-12-31T02:03:11.249Z,0.8
2022-12-31T02:06:11.169Z,0.8
2022-12-31T02:09:11.188Z,0.7
2022-12-31T02:12:11.182Z,0.8
2022-12-31T02:15:11.183Z,0.7
2022-12-31T02:18:11.220Z,0.7
2022-12-31T02:21:11.196Z,0.6
2022-12-31T02:24:11.209Z,0.7
2022-12-31T02:27:11.201Z,0.7
2022-12-31T02:30:11.208Z,0.7
2022-12-31T02:33:11.215Z,0.6
2022-12-31T02:36:11.243Z,0.6
2022-12-31T02:39:11.229Z,0.6
2022-12-31T02:42:11.218Z,0.7
2022-12-31T02:45:11.225Z,0.6
2022-12-31T02:48:11.239Z,0.6
2022-12-31T02:51:11.233Z,0.6
2022-12-31T02:54:11.342Z,0.6
2022-12-31T02:57:11.251Z,0.6
2022-12-31T03:00:11.254Z,0.6
2022-12-31T03:03:11.253Z,0.6
2022-12-31T03:06:11.251Z,0.6
2022-12-31T03:09:11.266Z,0.6
2022-12-31T03:12:11.286Z,0.6
2022-12-31T03:15:11.261Z,0.6
2022-12-31T03:18:11.279Z,0.6
2022-12-31T03:21:11.280Z,0.6
2022-12-31T03:24:11.291Z,0.5
2022-12-31T03:27:11.285Z,0.6
2022-12-31T03:30:11.312Z,0.6
2022-12-31T03:33:11.295Z,0.7
2022-12-31T03:36:11.301Z,0.5
2022-12-31T03:39:11.337Z,0.6
2022-12-31T03:42:11.305Z,0.6
2022-12-31T03:45:11.314Z,0.6
2022-12-31T03:48:11.343Z,0.7
2022-12-31T03:51:11.320Z,0.6
2022-12-31T03:54:11.352Z,0.6
2022-12-31T03:57:11.326Z,0.5
2022-12-31T04:00:11.331Z,0.5
2022-12-31T04:03:11.372Z,0.6
2022-12-31T04:06:11.370Z,0.6
2022-12-31T04:09:11.356Z,0.6
2022-12-31T04:12:11.361Z,0.7
2022-12-31T04:15:11.357Z,0.7
2022-12-31T04:18:11.367Z,0.6
2022-12-31T04:21:11.362Z,0.7
2022-12-31T04:24:11.405Z,0.6
2022-12-31T04:27:11.382Z,0.7
2022-12-31T04:30:11.403Z,0.7
2022-12-31T04:33:11.398Z,0.8
2022-12-31T04:36:11.396Z,0.9
2022-12-31T04:39:11.413Z,0.8
2022-12-31T04:42:11.444Z,0.8
2022-12-31T04:45:11.433Z,0.9
2022-12-31T04:48:11.426Z,0.8
2022-12-31T04:51:11.432Z,0.7
2022-12-31T04:54:11.465Z,0.8
2022-12-31T04:57:11.445Z,0.7
2022-12-31T05:00:11.462Z,0.6
2022-12-31T05:03:11.510Z,0.6
2022-12-31T05:06:11.440Z,0.7
2022-12-31T05:09:11.476Z,0.7
2022-12-31T05:12:11.440Z,0.5
2022-12-31T05:15:11.443Z,0.5
2022-12-31T05:18:11.480Z,0.4
2022-12-31T05:21:11.450Z,0.4
2022-12-31T05:24:11.473Z,0.4
2022-12-31T05:27:11.456Z,0.4
2022-12-31T05:30:11.458Z,0.4
2022-12-31T05:33:11.472Z,0.3
2022-12-31T05:36:11.492Z,0.3
2022-12-31T05:39:11.488Z,0.3
2022-12-31T05:42:11.458Z,0.2
2022-12-31T05:45:11.459Z,0.3
2022-12-31T05:48:11.468Z,0.2
2022-12-31T05:51:11.464Z,0.2
2022-12-31T05:54:11.506Z,0.3
2022-12-31T05:57:11.476Z,0.4
2022-12-31T06:00:11.496Z,0.3
2022-12-31T06:03:11.627Z,0.5
2022-12-31T06:06:11.510Z,0.7
2022-12-31T06:09:11.498Z,0.9
2022-12-31T06:12:11.510Z,1.2
2022-12-31T06:15:11.487Z,1.3
2022-12-31T06:18:11.481Z,1.4
2022-12-31T06:21:11.493Z,1.3
2022-12-31T06:24:11.491Z,1.3
2022-12-31T06:27:11.485Z,1.6
2022-12-31T06:30:11.527Z,1.4
2022-12-31T06:33:11.502Z,1.3
2022-12-31T06:36:11.513Z,1.3
2022-12-31T06:39:11.514Z,1.2
2022-12-31T06:42:11.516Z,1.1
2022-12-31T06:45:11.522Z,1.1
2022-12-31T06:48:11.537Z,0.9
2022-12-31T06:51:15.116Z,1
2022-12-31T06:54:11.529Z,1
2022-12-31T06:57:11.519Z,1
2022-12-31T07:00:11.528Z,1.2
2022-12-31T07:03:11.656Z,1.2
2022-12-31T07:06:11.544Z,1.4
2022-12-31T07:09:11.539Z,1.3
2022-12-31T07:12:11.531Z,1.3
2022-12-31T07:15:11.545Z,1.4
2022-12-31T07:18:11.530Z,1.5
2022-12-31T07:21:11.532Z,1.5
2022-12-31T07:24:11.596Z,1.5
2022-12-31T07:27:11.552Z,1.5
2022-12-31T07:30:11.549Z,1.6
2022-12-31T07:33:11.543Z,1.7
2022-12-31T07:36:11.548Z,1.7
2022-12-31T07:39:11.563Z,1.8
2022-12-31T07:42:11.665Z,1.6
2022-12-31T07:45:11.551Z,1.6
2022-12-31T07:48:11.552Z,1.6
2022-12-31T07:51:11.556Z,1.3
2022-12-31T07:54:14.076Z,1.3
2022-12-31T07:57:11.563Z,1.5
2022-12-31T08:00:11.597Z,2.2
2022-12-31T08:03:11.563Z,1.8
2022-12-31T08:06:11.565Z,1.8
2022-12-31T08:09:11.581Z,1.9
2022-12-31T08:12:11.578Z,1.9
2022-12-31T08:15:11.576Z,2
2022-12-31T08:18:11.671Z,1.8
2022-12-31T08:21:11.582Z,1.9
2022-12-31T08:24:11.593Z,2.1
2022-12-31T08:27:11.581Z,1.9
2022-12-31T08:30:11.596Z,2
2022-12-31T08:33:11.601Z,2
2022-12-31T08:36:11.624Z,2.1
2022-12-31T08:39:11.615Z,2.2
2022-12-31T08:42:11.597Z,2.3
2022-12-31T08:45:11.601Z,2.4
2022-12-31T08:48:11.599Z,2
2022-12-31T08:51:11.614Z,2
2022-12-31T08:54:11.635Z,2.3
2022-12-31T08:57:11.616Z,2.5
2022-12-31T09:00:11.611Z,2.3
2022-12-31T09:03:11.615Z,2.2
2022-12-31T09:06:11.618Z,2.2
2022-12-31T09:09:11.633Z,2.1
2022-12-31T09:12:11.661Z,2.1
2022-12-31T09:15:11.627Z,2.3
2022-12-31T09:18:11.632Z,1.2
2022-12-31T09:21:11.631Z,1
2022-12-31T09:24:11.646Z,1
2022-12-31T09:27:11.643Z,1
2022-12-31T09:30:11.661Z,0.9
2022-12-31T09:33:11.645Z,0.8
2022-12-31T09:36:11.652Z,1
2022-12-31T09:39:11.669Z,1
2022-12-31T09:42:11.661Z,1.4
2022-12-31T09:45:11.666Z,1.4
2022-12-31T09:48:11.686Z,1.3
2022-12-31T09:51:11.671Z,1.7
2022-12-31T09:54:11.684Z,1.8
2022-12-31T09:57:11.680Z,1.6
2022-12-31T10:00:11.680Z,1.5
2022-12-31T10:03:11.759Z,1.9
2022-12-31T10:06:11.719Z,2.1
2022-12-31T10:09:11.702Z,1.9
2022-12-31T10:12:11.695Z,2
2022-12-31T10:15:11.696Z,1.6
2022-12-31T10:18:11.699Z,1.8
2022-12-31T10:21:11.698Z,1.6
2022-12-31T10:24:11.761Z,1.2
2022-12-31T10:27:11.706Z,1.3
2022-12-31T10:30:11.710Z,1.1
2022-12-31T10:33:11.721Z,1.1
2022-12-31T10:36:11.725Z,1.1
2022-12-31T10:39:15.265Z,1
2022-12-31T10:42:11.822Z,1.2
2022-12-31T10:45:11.736Z,1.2
2022-12-31T10:48:11.744Z,1.3
2022-12-31T10:51:11.743Z,1.5
2022-12-31T10:54:11.766Z,1.4
2022-12-31T10:57:11.750Z,1.3
2022-12-31T11:00:11.785Z,1.5
2022-12-31T11:03:11.818Z,1.6
2022-12-31T11:06:11.766Z,1.3
2022-12-31T11:09:11.785Z,1.3
2022-12-31T11:12:11.796Z,1.4
2022-12-31T11:15:11.781Z,1.5
2022-12-31T11:18:11.808Z,1.7
2022-12-31T11:21:11.780Z,1.6
2022-12-31T11:24:11.800Z,1.7
2022-12-31T11:27:11.798Z,1.5
2022-12-31T11:30:11.788Z,1.4
2022-12-31T11:33:11.796Z,1.6
2022-12-31T11:36:11.829Z,1.4
2022-12-31T11:39:11.804Z,1.2
2022-12-31T11:42:11.819Z,1.2
2022-12-31T11:45:11.799Z,1
2022-12-31T11:48:35.125Z,1.1
2022-12-31T11:51:11.812Z,0.9
2022-12-31T11:54:11.862Z,0.8
2022-12-31T11:57:11.815Z,0.6
2022-12-31T12:00:11.812Z,0.8
2022-12-31T12:03:11.865Z,0.7
2022-12-31T12:06:11.814Z,0.6
2022-12-31T12:09:11.829Z,0.5
2022-12-31T12:12:11.846Z,0.5
2022-12-31T12:15:11.827Z,0.6
2022-12-31T12:18:11.825Z,0.7
2022-12-31T12:21:11.829Z,0.9
2022-12-31T12:24:11.842Z,0.9
2022-12-31T12:27:11.834Z,0.8
2022-12-31T12:30:11.916Z,0.9
2022-12-31T12:33:11.842Z,0.9
2022-12-31T12:36:11.868Z,0.9
2022-12-31T12:39:11.849Z,1.1
2022-12-31T12:42:11.847Z,1
2022-12-31T12:45:11.853Z,1
2022-12-31T12:48:11.878Z,1
2022-12-31T12:51:11.857Z,1
2022-12-31T12:54:11.871Z,1
2022-12-31T12:57:11.860Z,1
2022-12-31T13:00:11.858Z,1.2
2022-12-31T13:03:11.863Z,1.1
2022-12-31T13:06:11.889Z,1
2022-12-31T13:09:11.865Z,1.1
2022-12-31T13:12:11.868Z,1.1
2022-12-31T13:15:11.871Z,1
2022-12-31T13:18:11.875Z,1.1
2022-12-31T13:21:11.873Z,1.4
2022-12-31T13:24:11.897Z,1.4
2022-12-31T13:27:11.885Z,1.3
2022-12-31T13:30:11.876Z,1.2
2022-12-31T13:33:11.876Z,1.3
2022-12-31T13:36:11.878Z,1.3
2022-12-31T13:39:11.900Z,1.2
2022-12-31T13:42:11.905Z,1.1
2022-12-31T13:45:11.883Z,1
2022-12-31T13:48:11.881Z,0.9
2022-12-31T13:51:11.891Z,0.8
2022-12-31T13:54:11.892Z,0.9
2022-12-31T13:57:11.889Z,0.8
2022-12-31T14:00:11.917Z,0.9
2022-12-31T14:03:11.917Z,0.9
2022-12-31T14:06:11.891Z,0.9
2022-12-31T14:09:11.894Z,1.1
2022-12-31T14:12:11.892Z,0.7
2022-12-31T14:15:11.908Z,0.8
2022-12-31T14:18:11.916Z,0.7
2022-12-31T14:21:11.897Z,0.9
2022-12-31T14:24:11.895Z,0.9
2022-12-31T14:27:11.898Z,0.8
2022-12-31T14:30:11.902Z,0.8
2022-12-31T14:33:11.921Z,0.8
2022-12-31T14:36:11.932Z,0.8
2022-12-31T14:39:11.906Z,0.9
2022-12-31T14:42:11.908Z,0.8
2022-12-31T14:45:11.914Z,1
2022-12-31T14:48:12.358Z,0.9
2022-12-31T14:51:11.911Z,1
2022-12-31T14:54:11.951Z,1.1
2022-12-31T14:57:11.916Z,1.2
2022-12-31T15:00:11.935Z,1.3
2022-12-31T15:03:11.927Z,1.7
2022-12-31T15:06:11.918Z,1.5
2022-12-31T15:09:11.925Z,1.4
2022-12-31T15:12:11.978Z,1.3
2022-12-31T15:15:11.926Z,1.3
2022-12-31T15:18:11.944Z,1.8
2022-12-31T15:21:11.933Z,2
2022-12-31T15:24:11.941Z,1.3
2022-12-31T15:27:11.947Z,1.6
2022-12-31T15:30:11.979Z,1.7
2022-12-31T15:33:11.960Z,1.4
2022-12-31T15:36:11.971Z,1.8
2022-12-31T15:39:11.985Z,1.1
2022-12-31T15:42:37.078Z,0.9
2022-12-31T15:45:11.990Z,1.2
2022-12-31T15:48:12.021Z,1.6
2022-12-31T15:51:12.002Z,1.1
2022-12-31T15:54:12.001Z,1
2022-12-31T15:57:12.010Z,1.7
2022-12-31T16:00:12.023Z,1.1
2022-12-31T16:03:12.106Z,1.1
2022-12-31T16:06:12.056Z,2.8
2022-12-31T16:09:12.030Z,1.1
2022-12-31T16:12:12.039Z,1.1
2022-12-31T16:15:12.043Z,1.4
2022-12-31T16:18:13.727Z,2.5
2022-12-31T16:21:12.060Z,1.6
2022-12-31T16:24:12.095Z,1.2
2022-12-31T16:27:12.073Z,1.6
2022-12-31T16:30:12.084Z,1.2
2022-12-31T16:33:12.092Z,1.3
2022-12-31T16:36:12.107Z,1.7
2022-12-31T16:39:12.103Z,1.3
2022-12-31T16:42:12.141Z,1.3
2022-12-31T16:45:12.127Z,1.2
2022-12-31T16:48:16.712Z,1.6
2022-12-31T16:51:12.131Z,3.2
2022-12-31T16:54:17.010Z,1.5
2022-12-31T16:57:12.147Z,1.3
2022-12-31T17:00:12.180Z,1.3
2022-12-31T17:03:12.228Z,1.1
2022-12-31T17:06:12.172Z,1.2
2022-12-31T17:09:12.179Z,1.1
2022-12-31T17:12:12.189Z,1.1
2022-12-31T17:15:12.202Z,1.3
2022-12-31T17:18:12.235Z,1.3
2022-12-31T17:21:12.203Z,1.5
2022-12-31T17:24:12.216Z,2.3
2022-12-31T17:27:12.224Z,1.6
2022-12-31T17:30:12.228Z,1.6
2022-12-31T17:33:12.242Z,1.5
2022-12-31T17:36:12.277Z,1.5
2022-12-31T17:39:12.254Z,1.6
2022-12-31T17:42:12.268Z,1.7
2022-12-31T17:45:12.269Z,2.3
2022-12-31T17:48:12.282Z,1.6
2022-12-31T17:51:12.310Z,1.8
2022-12-31T17:54:12.324Z,1.8
2022-12-31T17:57:12.307Z,1.8
2022-12-31T18:00:12.315Z,1.9
2022-12-31T18:03:12.390Z,2.1
2022-12-31T18:06:16.441Z,2.3
2022-12-31T18:09:12.370Z,3.2
2022-12-31T18:12:12.380Z,2.7
2022-12-31T18:15:12.358Z,3.1
2022-12-31T18:18:12.376Z,3.6
2022-12-31T18:21:12.383Z,2.5
2022-12-31T18:24:12.395Z,2.4
2022-12-31T18:27:12.402Z,2.2
2022-12-31T18:30:12.578Z,2.2
2022-12-31T18:33:12.422Z,2.6
2022-12-31T18:36:12.437Z,2.4
2022-12-31T18:39:12.440Z,2.5
2022-12-31T18:42:12.447Z,2.6
2022-12-31T18:45:12.454Z,2.6
2022-12-31T18:48:12.502Z,2.6
2022-12-31T18:51:12.491Z,2.3
2022-12-31T18:54:12.502Z,2.4
2022-12-31T18:57:12.503Z,2.4
2022-12-31T19:00:12.508Z,2.4
2022-12-31T19:03:12.570Z,2.3
2022-12-31T19:06:12.551Z,3
2022-12-31T19:09:30.609Z,2.4
2022-12-31T19:12:12.546Z,2.5
2022-12-31T19:15:12.559Z,9.1
2022-12-31T19:18:12.568Z,4.5
2022-12-31T19:21:12.578Z,2.4
2022-12-31T19:24:12.621Z,3.5
2022-12-31T19:27:12.609Z,2.3
2022-12-31T19:30:12.615Z,2.8
2022-12-31T19:33:12.618Z,3.3
2022-12-31T19:36:12.628Z,2.6
2022-12-31T19:39:12.641Z,2.7
2022-12-31T19:42:12.668Z,2.3
2022-12-31T19:45:12.650Z,2.6
2022-12-31T19:48:12.658Z,2.5
2022-12-31T19:51:12.668Z,2.5
2022-12-31T19:54:12.682Z,4.6
2022-12-31T19:57:12.689Z,3.6
2022-12-31T20:00:12.726Z,7.8
2022-12-31T20:03:12.816Z,2.8
2022-12-31T20:06:12.715Z,6.9
2022-12-31T20:09:12.717Z,3.6
2022-12-31T20:12:12.736Z,6
2022-12-31T20:15:12.733Z,3.1
2022-12-31T20:18:12.779Z,2.8
2022-12-31T20:21:12.751Z,3
2022-12-31T20:24:12.762Z,2.7
2022-12-31T20:27:18.213Z,2.5
2022-12-31T20:30:12.790Z,2.5
2022-12-31T20:33:17.382Z,2.5
2022-12-31T20:36:12.810Z,2.3
2022-12-31T20:39:12.798Z,2.3
2022-12-31T20:42:12.795Z,3.4
2022-12-31T20:45:12.812Z,2.3
2022-12-31T20:48:12.807Z,2.3
2022-12-31T20:51:12.874Z,2.5
2022-12-31T20:54:12.847Z,2.1
2022-12-31T20:57:12.830Z,2
2022-12-31T21:00:12.829Z,2.2
2022-12-31T21:03:30.396Z,2
2022-12-31T21:06:12.858Z,2.1
2022-12-31T21:09:12.847Z,2
2022-12-31T21:12:12.874Z,1.9
2022-12-31T21:15:12.858Z,2.5
2022-12-31T21:18:12.873Z,2.2
2022-12-31T21:21:12.872Z,2.4
2022-12-31T21:24:12.878Z,2.5
2022-12-31T21:27:12.882Z,2.4
2022-12-31T21:30:20.354Z,2.3
2022-12-31T21:33:12.891Z,2.5
2022-12-31T21:36:12.898Z,2.5
2022-12-31T21:39:12.899Z,2.4
2022-12-31T21:42:12.901Z,2.2
2022-12-31T21:45:12.910Z,2.7
2022-12-31T21:48:12.936Z,3.3
2022-12-31T21:51:12.986Z,2.9
2022-12-31T21:54:12.921Z,2.3
2022-12-31T21:57:12.923Z,2.3
2022-12-31T22:00:42.138Z,2.1
2022-12-31T22:03:13.037Z,2.2
2022-12-31T22:06:12.996Z,2.4
2022-12-31T22:09:12.939Z,2
2022-12-31T22:12:12.956Z,2.3
2022-12-31T22:15:13.785Z,2.2
2022-12-31T22:18:12.955Z,2.4
2022-12-31T22:21:18.661Z,2.1
2022-12-31T22:24:13.001Z,2.2
2022-12-31T22:27:27.938Z,2.2
2022-12-31T22:30:12.983Z,1.9
2022-12-31T22:33:12.988Z,2.1
2022-12-31T22:36:12.996Z,2.3
2022-12-31T22:39:12.990Z,2.1
2022-12-31T22:42:13.015Z,2.2
2022-12-31T22:45:13.004Z,2.2
2022-12-31T22:48:12.999Z,2.3
2022-12-31T22:51:13.032Z,2.5
2022-12-31T22:54:13.012Z,2.6
2022-12-31T22:57:17.891Z,3.1
2022-12-31T23:00:13.063Z,4.4
2022-12-31T23:03:13.041Z,16.5
2022-12-31T23:06:13.016Z,14.1
2022-12-31T23:09:13.019Z,52.8
2022-12-31T23:12:13.032Z,20.1
2022-12-31T23:15:13.016Z,28.9
2022-12-31T23:18:13.048Z,30.8
2022-12-31T23:21:13.025Z,28.2
2022-12-31T23:24:19.175Z,25.3
2022-12-31T23:27:13.027Z,22
2022-12-31T23:30:13.050Z,18.4
2022-12-31T23:33:13.047Z,18.5
2022-12-31T23:36:13.075Z,16.1
2022-12-31T23:39:13.054Z,12.5
2022-12-31T23:42:13.055Z,10.6
2022-12-31T23:45:13.061Z,10.7
2022-12-31T23:48:13.071Z,10.8
2022-12-31T23:51:13.077Z,11.5
2022-12-31T23:54:13.129Z,11.6
2022-12-31T23:57:13.099Z,11.6
